ケアンズ国際空港の過去48時間の天気

ケアンズ国際空港 (Cairns Airport)

現在時刻: 2/28 00:38 AEST (2/27 14:38 UTC) 以下の時間は現地時間です。

過去48時間のMETAR気象情報
時間 風向 風速(m/s) 視程 気温(℃) 湿度(%) 気圧(hPa) 天気現象
28 00:00 南南西 1 10km以上 24 100 1008
27 23:30 西南西 1 10km以上 24 94 1008
27 23:00 南南東 2 10km以上 24 100 1009
27 22:30 南南東 2 10km以上 24 100 1009 弱いしゅう雨
27 22:00 西 1 10km以上 24 100 1008 弱いしゅう雨
27 21:46 西北西 2 10km以上 24 100 1009 しゅう雨
27 21:30 南東 1 5000m 24 100 1009 しゅう雨
27 21:00 西南西 1 10km以上 24 100 1009
27 20:30 南南東 1 10km以上 24 100 1009 弱い雨
27 20:00 1 10km以上 24 100 1009 雨 雷雨
27 19:46 東南東 3 10km以上 24 100 1009 弱い雨 雷雨
27 19:30 南南東 4 4200m 24 100 1008 周辺で雷 強い雨
27 19:00 5 10km以上 25 94 1008 弱いしゅう雨 強い雨
27 18:46 3 6000m 24 94 1007 強い雨
27 18:30 南南東 4 10km以上 24 100 1007 雨 弱いしゅう雨
27 18:00 南南東 5 10km以上 24 100 1006 弱い雨 弱いしゅう雨
27 17:30 南南東 5 8000m 24 100 1006 周辺で雷 強い雨 弱いしゅう雨
27 17:27 南南東 5 8000m 24 100 1006 周辺で雷 強い雨
27 17:04 南東 5 10km以上 25 89 1005 強い雷雨
27 16:52 2 6000m 26 89 1005 強い雷雨
27 16:36 3 6000m 27 89 1005 強い雷雨
27 16:30 南南西 4 10km以上 27 89 1005 雷雨
27 16:23 南東 3 10km以上 28 84 1005 弱い雷雨 弱いしゅう雨
27 16:09 東北東 2 10km以上 29 89 1004 弱い雷雨
27 15:45 2 10km以上 30 79 1004 周辺で雷 雨 弱いしゅう雨
27 15:30 北北東 2 10km以上 30 79 1004
27 15:20 北北東 4 10km以上 30 75 1004
27 15:00 北北東 5 10km以上 32 71 1004 周辺で雷 周辺で雷
27 14:30 5 10km以上 31 75 1004
27 14:00 5 10km以上 33 71 1005
27 13:30 5 10km以上 32 71 1005
27 13:00 6 10km以上 32 71 1006
27 12:30 6 10km以上 31 75 1007
27 12:00 6 10km以上 31 75 1007
27 11:30 6 10km以上 32 71 1007
27 11:00 5 10km以上 31 75 1008
27 10:30 3 10km以上 31 75 1008 弱いしゅう雨
27 10:00 南東 1 10km以上 31 66 1009
27 09:30 南南東 2 10km以上 30 75 1009
27 09:00 南南東 1 10km以上 30 79 1009
27 08:30 静穏 0 10km以上 29 79 1008
27 08:00 静穏 0 10km以上 28 84 1008
27 07:30 静穏 0 10km以上 27 94 1008
27 07:00 静穏 0 10km以上 26 94 1008
27 06:30 静穏 0 10km以上 25 100 1007
27 06:00 静穏 0 10km以上 25 94 1007
27 05:30 静穏 0 10km以上 26 89 1007
27 05:01 静穏 0 10km以上 26 94 1007
27 04:30 静穏 0 10km以上 26 94 1006
27 04:00 静穏 0 10km以上 26 94 1006
27 03:57 静穏 0 10km以上 26 94 1006
27 03:30 静穏 0 10km以上 26 94 1006
27 03:00 静穏 0 10km以上 26 94 1006
27 02:30 静穏 0 10km以上 26 94 1007
27 02:00 静穏 0 10km以上 26 94 1007
27 01:30 南南東 1 10km以上 26 94 1007
27 01:00 西 2 10km以上 26 94 1008
27 00:32 西 1 10km以上 26 94 1008
27 00:06 静穏 0 4300m 26 94 1008 もや
26 23:30 静穏 0 10km以上 27 89 1009
26 23:00 西 1 10km以上 27 89 1009
26 22:30 静穏 0 10km以上 27 89 1009
26 22:00 静穏 0 10km以上 27 89 1009
26 21:30 静穏 0 10km以上 27 89 1008
26 21:00 静穏 0 10km以上 28 84 1008
26 20:30 静穏 0 10km以上 28 84 1008
26 20:00 西 1 10km以上 28 84 1007
26 19:30 西 1 10km以上 28 84 1007
26 19:00 北西 2 10km以上 29 79 1007
26 18:57 北西 2 10km以上 29 79 1007
26 18:36 1 10km以上 29 79 1006
26 18:00 3 10km以上 30 75 1006
26 17:30 3 10km以上 30 75 1006
26 17:00 3 10km以上 30 75 1006
26 16:30 北北東 3 10km以上 30 70 1006
26 16:00 3 10km以上 31 70 1006
26 15:30 北北東 3 10km以上 31 70 1006
26 15:00 3 10km以上 31 75 1006
26 14:30 北東 2 10km以上 30 75 1006
26 14:00 2 10km以上 30 75 1007
26 13:30 北北東 2 10km以上 30 75 1007
26 13:00 北北東 3 10km以上 31 75 1008
26 12:30 3 10km以上 30 75 1008
26 12:00 北北東 3 10km以上 31 70 1009
26 11:30 北北東 2 10km以上 31 70 1009
26 11:00 北北東 2 10km以上 30 75 1009
26 10:30 北東 2 10km以上 30 75 1010
26 10:00 東南東 1 10km以上 29 79 1010
26 09:30 南東 1 10km以上 28 84 1010
26 09:09 南東 2 10km以上 27 89 1010
26 09:00 南東 2 10km以上 27 89 1010
26 08:43 2 10km以上 27 89 1010 弱い雨
26 08:00 東南東 3 10km以上 27 89 1009
26 07:30 東南東 2 10km以上 27 89 1009
26 07:00 静穏 0 10km以上 25 100 1009
26 06:30 静穏 0 10km以上 25 94 1008
26 06:00 静穏 0 10km以上 25 94 1009
26 05:30 静穏 0 10km以上 25 94 1008
26 05:00 南東 2 10km以上 25 94 1008
26 04:49 南南東 1 10km以上 25 100 1008
26 04:30 静穏 0 10km以上 25 100 1008
26 04:00 静穏 0 10km以上 25 100 1008 弱いしゅう雨
26 03:34 静穏 0 10km以上 25 100 1008 弱いしゅう雨
26 03:30 静穏 0 10km以上 25 100 1008 弱いしゅう雨
26 03:18 北北西 1 10km以上 25 94 1008 弱い雨
26 03:00 西北西 2 10km以上 25 94 1008 弱い雨
26 02:30 西南西 1 10km以上 25 100 1008
26 02:00 西 1 10km以上 25 94 1008
26 01:30 南南東 2 10km以上 25 94 1008
26 01:11 南南東 2 10km以上 25 94 1009
26 01:00 南東 2 10km以上 25 94 1009
YBCS 271400Z AUTO 21002KT 9999 // NCD 24/24 Q1008 RF00.0/032.8 FM1400 17005KT 9999 -SHRA SCT015 SCT025
YBCS 271330Z AUTO 25001KT 9999 // BKN120 24/23 Q1008 RF00.0/032.8 FM1330 17005KT 9999 -SHRA SCT015 SCT025
YBCS 271300Z AUTO 16003KT 9999 // SCT125 24/24 Q1009 RF00.0/032.8 FM1300 17005KT 9999 -SHRA SCT015 SCT025
YBCS 271230Z AUTO 16003KT 9999 -SHRA NCD 24/24 Q1009 RF00.0/032.8 FM1230 17005KT 9999 -SHRA SCT015 SCT025 INTER 1330/1530 5000 -SHRA SCT010 BKN015
YBCS 271200Z AUTO 26001KT 9999 -SHRA SCT087 SCT110 24/24 Q1008 RESHRA INTER 1200/1500 5000 -SHRA SCT010 BKN015
YBCS 271146Z AUTO 29003KT 9999 SHRA BKN092 OVC110 24/24 Q1009 INTER 1146/1446 5000 -SHRA SCT010 BKN015
YBCS 271130Z AUTO 14002KT 5000 SHRA SCT073 BKN089 OVC110 24/24 Q1009 INTER 1130/1430 5000 -SHRA SCT010 BKN015
YBCS 271100Z AUTO 24001KT 9999 // SCT056 BKN068 OVC098 24/24 Q1009 SCT025 INTER 1100/1400 5000 -SHRA SCT010 BKN015
YBCS 271030Z AUTO 16002KT 9999 -RA SCT067 SCT100 OVC120 24/24 Q1009 RERA SCT015 SCT025 INTER 1030/1330 5000 -SHRA SCT010 BKN015
YBCS 271000Z AUTO 18001KT 9999 RA SCT066 SCT090 BKN110 24/24 Q1009 2000 TSRA BKN010 SCT025CB INTER 1030/1300 5000 -SHRA SCT010 BKN015
YBCS 270946Z AUTO 12006KT 9999 -RA SCT014 SCT045 BKN070 24/24 Q1009 RERA VRB25G35KT 2000 TSRA BKN010 SCT025CB INTER 1030/1300 5000 -SHRA SCT010 BKN015
YBCS 270930Z AUTO 15007KT 4200 VCTS +RA SCT028 BKN039 BKN050 24/24 Q1008 SCT025 BKN050 TEMPO 0930/1030 VRB25G35KT 2000 TSRA BKN010 SCT025CB INTER 1030/1230 5000 -SHRA SCT010 BKN015
YBCS 270900Z AUTO 18009KT 1600 +RA SCT017 SCT022 BKN029 25/24 Q1008 9999 -SHRA SCT025 BKN050 TEMPO 0900/1030 VRB25G35KT 2000 TSRA BKN010 SCT025CB
YBCS 270846Z AUTO 19005G15KT 170V240 6000 +RA SCT006 SCT023 OVC027 24/23 Q1007 FM0847 01010KT 9999 -SHRA SCT025 BKN050 TEMPO 0847/1000 VRB25G35KT 2000 TSRA BKN010 SCT025CB
YBCS 270830Z AUTO 16007KT 9999 RA SCT006 BKN025 BKN033 24/24 Q1007 01010KT 9999 -SHRA SCT025 BKN050 TEMPO 0830/1000 VRB25G35KT 2000 TSRA BKN010 SCT025CB
YBCS 270800Z AUTO 15009KT 9999 -RA SCT061 SCT100 BKN115 24/24 Q1006 RERA 01010KT 9999 -SHRA SCT025 BKN050 TEMPO 0800/1000 VRB25G35KT 2000 TSRA BKN010 SCT025CB
YBCS 270730Z AUTO 15010KT 8000 VCTS +RA BKN070 BKN093 OVC110 24/24 Q1006 RETS -SHRA SCT025 BKN050 TEMPO 0730/1000 VRB25G35KT 2000 TSRA BKN010 SCT025CB
YBCS 270727Z AUTO 15010KT 8000 VCTS +RA SCT063 BKN072 BKN093 24/24 Q1006 RETS FM0727 01010KT 9999 -SHRA SCT025 BKN050 TEMPO 0727/1000 VRB25G35KT 2000 TSRA BKN010 SCT025CB
YBCS 270704Z AUTO 13010KT 350V130 9999 +TSRA SCT033 SCT056 SCT076 25/23 Q1005 FM0704 01010KT 9999 -SHRA SCT025 BKN050 TEMPO 0704/1000 VRB25G35KT 2000 TSRA BKN010 SCT025CB
YBCS 270652Z AUTO 18004KT 6000 +TSRA SCT015 BKN037 BKN067 26/24 Q1005 FM0652 01010KT 9999 -SHRA SCT025 BKN050 TEMPO 0652/0952 VRB25G35KT 2000 TSRA BKN010 SCT025CB
YBCS 270636Z AUTO 19006KT 6000 +TSRA SCT013 BKN018 OVC026 27/25 Q1005 BKN050 TEMPO 0636/0936 VRB25G35KT 2000 TSRA BKN010 SCT025CB
YBCS 270630Z AUTO 20007KT 160V250 9999 TSRA SCT013 BKN016 OVC024 27/25 Q1005 FM0630 01010KT 9999 -SHRA SCT025 BKN050 TEMPO 0630/0930 VRB25G35KT 2000 TSRA BKN010 SCT025CB
YBCS 270623Z AUTO 13005KT 080V180 9999 -TSRA SCT011 BKN016 BKN024 28/25 Q1005 RESHRA -SHRA SCT025 BKN050 TEMPO 0623/0923 VRB25G35KT 2000 TSRA BKN010 SCT025CB
YBCS 270609Z AUTO 07003KT 9999 -TSRA SCT016 OVC024 29/27 Q1004 TEMPO 0609/0909 VRB25G35KT 2000 TSRA BKN010 SCT025CB
YBCS 270545Z AUTO 01004KT 9999 VCTS RA SCT024 BKN065 OVC100 30/26 Q1004 RETS 01010KT 9999 -SHRA SCT025 BKN050 TEMPO 0545/0845 VRB25G35KT 2000 TSRA BKN010 SCT025CB
YBCS 270530Z AUTO 03004KT 9999 TS SCT018 SCT056 SCT071 30/26 Q1004 BKN010 SCT025CB
YBCS 270520Z AUTO 03007KT 9999 TS SCT018 SCT058 30/25 Q1004 INTER 0530/0820 2000 SHRA BKN010 TEMPO 0530/0820 VRB25G35KT 2000 TSRA BKN010 SCT025CB
YBCS 270500Z AUTO 02010KT 9999 VCTS NCD 32/26 Q1004 RF00.0/000.0 VCTS-SW INTER 0530/0800 2000 SHRA BKN010 TEMPO 0530/0800 VRB25G35KT 2000 TSRA BKN010 SCT025CB
YBCS 270430Z AUTO 01010KT 9999 // NCD 31/26 Q1004 RF00.0/000.0 DL-S/DL-SW INTER 0530/0730 2000 SHRA BKN010 TEMPO 0530/0730 VRB25G35KT 2000 TSRA BKN010 SCT025CB
YBCS 270400Z AUTO 36010KT 9999 // NCD 33/27 Q1005 RF00.0/000.0 DL-S/DL-SW INTER 0500/0700 2000 SHRA BKN010 TEMPO 0500/0700 VRB25G35KT 2000 TSRA BKN010 SCT025CB
YBCS 270330Z AUTO 36009KT 9999 // NCD 32/26 Q1005 RF00.0/000.0 DL-S/DL-SW INTER 0430/0630 2000 SHRA BKN010 TEMPO 0430/0630 VRB25G35KT 2000 TSRA BKN010 SCT025CB
YBCS 270300Z AUTO 36011KT 9999 // NCD 32/26 Q1006 RF00.0/000.0 DL-S INTER 0400/0600 2000 SHRA BKN010 TEMPO 0400/0600 VRB25G35KT 2000 TSRA BKN010 SCT025CB
YBCS 270230Z AUTO 36012KT 9999 // NCD 31/26 Q1007 RF00.0/000.0 INTER 0400/0530 2000 SHRA BKN010
YBCS 270200Z AUTO 36011KT 9999 // NCD 31/26 Q1007 RF00.0/000.0 INTER 0400/0500 2000 SHRA BKN010
YBCS 270130Z AUTO 36011KT 9999 // NCD 32/26 Q1007 RF00.0/000.0 FM0230 32009KT 9999 -SHRA SCT025
YBCS 270100Z AUTO 36009KT 9999 // NCD 31/26 Q1008 RF00.0/000.0 FM0200 32009KT 9999 -SHRA SCT025
YBCS 270030Z AUTO 01005KT 9999 // SCT023 31/26 Q1008 RF00.0/000.0 DL-E FM 0200 32009KT 9999 -SHRA SCT025
YBCS 270000Z AUTO 13002KT 9999 // NCD 31/24 Q1009 RF00.0/000.0 NOSIG
YBCS 262330Z AUTO 16004KT 9999 // BKN067 OVC083 30/25 Q1009
YBCS 262300Z AUTO 15002KT 9999 // OVC067 30/26 Q1009 RF00.0/000.0 NOSIG
YBCS 262230Z AUTO 00000KT 9999 // BKN066 OVC075 29/25 Q1008
YBCS 262200Z AUTO 00000KT 9999 // BKN068 28/25 Q1008 RF00.0/000.0 NOSIG
YBCS 262130Z AUTO 00000KT 9999 // SCT068 27/26 Q1008 RF00.0/000.0 NOSIG
YBCS 262100Z AUTO 00000KT 9999 // BKN070 26/25 Q1008 RF00.0/000.0 NOSIG
YBCS 262030Z AUTO 00000KT 9999 // NCD 25/25 Q1007 RF00.0/000.0 NOSIG
YBCS 262000Z AUTO 00000KT 9999 // NCD 25/24 Q1007 RF00.0/000.0 NOSIG
YBCS 261930Z AUTO 00000KT 9999 // NCD 26/24 Q1007 RF00.0/000.0 NOSIG
YBCS 261901Z AUTO 00000KT 9999 // SCT020 26/25 Q1007 RF00/0/000/0 NOSIG
YBCS 261830Z AUTO 00000KT 9999 // BKN020 26/25 Q1006 RF00.0/000.0 NOSIG
YBCS 261800Z AUTO 00000KT 9999 // BKN020 26/25 Q1006 RF00.0/000.0 NOSIG
YBCS 261757Z AUTO 00000KT 9999 // BKN020 26/25 Q1006 NOSIG
YBCS 261730Z AUTO 00000KT 9999 // NCD 26/25 Q1006 RF00.0/000.0 NOSIG
YBCS 261700Z AUTO 00000KT 9999 // NCD 26/25 Q1006 RF00.0/000.0 NOSIG
YBCS 261630Z AUTO 00000KT 9999 // NCD 26/25 Q1007 RF00.0/000.0 NOSIG
YBCS 261600Z AUTO 00000KT 9999 // NCD 26/25 Q1007 RF00.0/000.0 NOSIG
YBCS 261530Z AUTO 16001KT 9999 // SCT072 SCT088 26/25 Q1007
YBCS 261500Z AUTO 28003KT 9999 // SCT088 26/25 Q1008 RF00.0/000.0 NOSIG
YBCS 261432Z AUTO 28001KT 9999 // NCD 26/25 Q1008 RF00/0/000/0 NOSIG
YBCS 261406Z AUTO 00000KT 4300 BR SCT022 26/25 Q1008 RF00/0/000/0 FM1406 VRB03KT 9999 FEW010 SCT020
YBCS 261330Z AUTO 00000KT 9999 // SCT024 27/25 Q1009 RF00.0/000.0 NOSIG
YBCS 261300Z AUTO 26001KT 9999 // SCT022 27/25 Q1009 RF00.0/000.0 NOSIG
YBCS 261230Z AUTO 00000KT 9999 // SCT027 BKN087 27/25 Q1009
YBCS 261200Z AUTO 00000KT 9999 // NCD 27/25 Q1009 RF00.0/000.0 NOSIG
YBCS 261130Z AUTO 00000KT 9999 // SCT025 27/25 Q1008 RF00.0/000.0 FM1130 VRB03KT 9999 FEW010 SCT020
YBCS 261100Z AUTO 00000KT 9999 // BKN023 28/25 Q1008 RF00.0/000.0 FM1100 VRB03KT 9999 FEW010 SCT020
YBCS 261030Z AUTO 00000KT 9999 // BKN023 28/25 Q1008 RF00.0/000.0 FM1030 VRB03KT 9999 NSW FEW010 SCT020
YBCS 261000Z AUTO 26001KT 9999 // BKN023 28/25 Q1007 RF00.0/000.0 FM1030 VRB03KT 9999 FEW010 SCT020
YBCS 260930Z AUTO 27001KT 9999 // NCD 28/25 Q1007 RF00.0/000.0 NOSIG
YBCS 260900Z AUTO 31003KT 9999 // SCT020 29/25 Q1007 NOSIG
YBCS 260857Z AUTO 31003KT 9999 // SCT020 29/25 Q1007 RF00/0/000/0 DL-SW NOSIG
YBCS 260836Z AUTO 36002KT 9999 // BKN020 29/25 Q1006 RF00/0/000/0 DL-S/DL-SW NOSIG
YBCS 260800Z AUTO 36005KT 9999 // NCD 30/25 Q1006 RF00.0/000.0 DL-S/DL-SW NOSIG
YBCS 260730Z AUTO 36005KT 9999 // NCD 30/25 Q1006 RF00.0/000.0 NOSIG
YBCS 260700Z AUTO 36006KT 9999 // NCD 30/25 Q1006 RF00.0/000.0 NOSIG
YBCS 260630Z AUTO 02006KT 9999 // NCD 30/24 Q1006 RF00.0/000.0 DL-W NOSIG
YBCS 260600Z AUTO 01006KT 9999 // NCD 31/25 Q1006 RF00.0/000.0 NOSIG
YBCS 260530Z AUTO 03006KT 9999 // NCD 31/25 Q1006 RF00.0/000.0 NOSIG
YBCS 260500Z AUTO 01005KT 9999 // NCD 31/26 Q1006 RF00.0/000.0 NOSIG
YBCS 260430Z AUTO 04004KT 9999 // NCD 30/25 Q1006 RF00.0/000.0 NOSIG
YBCS 260400Z AUTO 36003KT 9999 // NCD 30/25 Q1007 RF00.0/000.0 NOSIG
YBCS 260330Z AUTO 03004KT 9999 // BKN120 30/25 Q1007 RF00.0/000.0 NOSIG
YBCS 260300Z AUTO 02005KT 9999 // SCT120 31/26 Q1008 RF00.0/000.0 NOSIG
YBCS 260230Z AUTO 01006KT 9999 // NCD 30/25 Q1008 RF00.0/000.0 NOSIG
YBCS 260200Z AUTO 02006KT 9999 // NCD 31/25 Q1009 RF00.0/000.0 NOSIG
YBCS 260130Z AUTO 02003KT 9999 // NCD 31/25 Q1009 RF00.0/000.0 NOSIG
YBCS 260100Z AUTO 03003KT 9999 // NCD 30/25 Q1009 RF00.0/000.0 FM0200 02012KT 9999 -SHRA SCT025
YBCS 260030Z AUTO 04003KT 9999 // SCT017 BKN105 30/25 Q1010
YBCS 260000Z AUTO 11002KT 9999 // SCT066 SCT078 29/25 Q1010
YBCS 252330Z AUTO 14001KT 9999 // BKN068 OVC078 28/25 Q1010
YBCS 252309Z AUTO 13003KT 9999 // SCT019 BKN065 OVC073 27/25 Q1010 NOSIG
YBCS 252300Z AUTO 13004KT 9999 // SCT016 BKN023 OVC069 27/25 Q1010
YBCS 252243Z AUTO 10003KT 9999 -RA BKN016 BKN023 OVC028 27/25 Q1010 INTER 2243/0100 2000 SHRA BKN010
YBCS 252200Z AUTO 11005KT 9999 // BKN023 BKN034 27/25 Q1009 INTER 2215/0100 2000 SHRA BKN010
YBCS 252130Z AUTO 11004KT 040V130 9999 // BKN034 27/25 Q1009 INTER 2215/2315 2000 SHRA BKN010
YBCS 252100Z AUTO 00000KT 9999 // NCD 25/25 Q1009 RF00.0/043.4 FM2100 VRB03KT 9999 -SHRA SCT005 FEW025 FM2200 20005KT 9999 -SHRA FEW015 SCT020
YBCS 252030Z AUTO 00000KT 9999 // NCD 25/24 Q1008 RF00.0/043.4 NOSIG
YBCS 252000Z AUTO 00000KT 9999 // NCD 25/24 Q1009 RF00.0/043.4
YBCS 251930Z AUTO 00000KT 9999 // SCT024 SCT051 25/24 Q1008
YBCS 251900Z AUTO 14004KT 9999 // SCT021 SCT031 25/24 Q1008 TEMPO 1900/2000 9999 -SHRA BKN010
YBCS 251849Z AUTO 15002KT 9999 // SCT019 BKN031 25/25 Q1008 TEMPO 1849/2000 9999 -SHRA BKN010
YBCS 251830Z AUTO 00000KT 9999 // BKN019 BKN049 BKN055 25/25 Q1008 TEMPO 1830/2000 9999 -SHRA BKN010
YBCS 251800Z AUTO 00000KT 9999 -SHRA SCT022 SCT025 BKN035 25/25 Q1008 TEMPO 1800/2000 9999 -SHRA BKN010
YBCS 251734Z AUTO 00000KT 9999 -SHRA SCT017 SCT026 OVC038 25/25 Q1008 FM2000 19005KT 9999 -SHRA SCT015 TEMPO 1734/2000 9999 -SHRA BKN010
YBCS 251730Z AUTO 00000KT 9999 -SHRA SCT017 SCT022 OVC038 25/25 Q1008 FM2000 19005KT 9999 -SHRA SCT015 TEMPO 1730/2000 9999 -SHRA BKN010
YBCS 251718Z AUTO 34001KT 9999 -RA BKN017 BKN025 OVC038 25/24 Q1008 FM2000 19005KT 9999 -SHRA SCT015 TEMPO 1718/2000 9999 -SHRA BKN010
YBCS 251700Z AUTO 29003KT 9999 -RA SCT017 BKN024 OVC043 25/24 Q1008 TEMPO 1700 /2000 9999 -SHRA BKN010
YBCS 251630Z AUTO 24002KT 9999 // OVC015 OVC023 25/25 Q1008
YBCS 251600Z AUTO 27001KT 9999 // SCT015 BKN020 OVC046 25/24 Q1008 TEMPO 1600/1900 9999 -SHRA BKN010
YBCS 251530Z AUTO 15003KT 9999 // BKN017 BKN025 BKN036 25/24 Q1008 TEMPO 1530/1830 9999 -SHRA BKN010
YBCS 251511Z AUTO 15004KT 9999 // BKN020 BKN027 25/24 Q1009 FM1600 18005KT 9999 -SHRA SCT010 TEMPO 1511/1811 9999 -SHRA BKN010
YBCS 251500Z AUTO 14003KT 9999 // SCT022 BKN027 25/24 Q1009 TEMPO 1500/1800 9999 BKN010